sensor_id;sensor_type;location;lat;lon;timestamp;pressure;altitude;pressure_sealevel;temperature;humidity
56070;BME280;41944;52.078;-0.058;2022-12-29T00:00:16;98972.12;;;10.23;94.09
56070;BME280;41944;52.078;-0.058;2022-12-29T00:02:43;98968.20;;;10.18;94.09
56070;BME280;41944;52.078;-0.058;2022-12-29T00:05:10;98967.57;;;10.20;93.73
56070;BME280;41944;52.078;-0.058;2022-12-29T00:07:37;98960.48;;;10.18;93.48
56070;BME280;41944;52.078;-0.058;2022-12-29T00:10:05;98967.34;;;10.26;91.81
56070;BME280;41944;52.078;-0.058;2022-12-29T00:12:32;98967.87;;;10.18;90.90
56070;BME280;41944;52.078;-0.058;2022-12-29T00:14:59;98966.44;;;10.20;91.55
56070;BME280;41944;52.078;-0.058;2022-12-29T00:17:26;98965.59;;;10.20;91.38
56070;BME280;41944;52.078;-0.058;2022-12-29T00:19:53;98966.90;;;10.23;90.86
56070;BME280;41944;52.078;-0.058;2022-12-29T00:22:20;98962.36;;;10.29;89.40
56070;BME280;41944;52.078;-0.058;2022-12-29T00:24:47;98966.13;;;10.27;90.06
56070;BME280;41944;52.078;-0.058;2022-12-29T00:27:14;98968.94;;;10.19;89.35
56070;BME280;41944;52.078;-0.058;2022-12-29T00:29:40;98969.59;;;10.19;89.67
56070;BME280;41944;52.078;-0.058;2022-12-29T00:32:09;98980.49;;;10.18;90.03
56070;BME280;41944;52.078;-0.058;2022-12-29T00:34:37;98980.92;;;10.20;88.98
56070;BME280;41944;52.078;-0.058;2022-12-29T00:37:05;98978.73;;;10.17;89.07
56070;BME280;41944;52.078;-0.058;2022-12-29T00:39:32;98984.01;;;10.22;89.77
56070;BME280;41944;52.078;-0.058;2022-12-29T00:42:03;98982.73;;;10.19;89.39
56070;BME280;41944;52.078;-0.058;2022-12-29T00:44:31;98981.87;;;10.23;89.31
56070;BME280;41944;52.078;-0.058;2022-12-29T00:46:57;98976.66;;;10.28;88.56
56070;BME280;41944;52.078;-0.058;2022-12-29T00:49:24;98973.56;;;10.27;88.85
56070;BME280;41944;52.078;-0.058;2022-12-29T00:51:51;98972.91;;;10.29;88.09
56070;BME280;41944;52.078;-0.058;2022-12-29T00:54:20;98978.62;;;10.27;88.40
56070;BME280;41944;52.078;-0.058;2022-12-29T00:56:47;98979.82;;;10.27;88.46
56070;BME280;41944;52.078;-0.058;2022-12-29T00:59:15;98980.41;;;10.29;88.37
56070;BME280;41944;52.078;-0.058;2022-12-29T01:01:42;98976.04;;;10.30;87.82
56070;BME280;41944;52.078;-0.058;2022-12-29T01:04:10;98968.42;;;10.26;88.23
56070;BME280;41944;52.078;-0.058;2022-12-29T01:06:39;98972.59;;;10.24;87.82
56070;BME280;41944;52.078;-0.058;2022-12-29T01:09:07;98961.24;;;10.24;88.77
56070;BME280;41944;52.078;-0.058;2022-12-29T01:11:35;98965.79;;;10.26;88.26
56070;BME280;41944;52.078;-0.058;2022-12-29T01:14:02;98961.98;;;10.24;88.22
56070;BME280;41944;52.078;-0.058;2022-12-29T01:16:29;98955.33;;;10.18;87.65
56070;BME280;41944;52.078;-0.058;2022-12-29T01:18:56;98957.98;;;10.17;88.48
56070;BME280;41944;52.078;-0.058;2022-12-29T01:21:24;98948.98;;;10.19;88.45
56070;BME280;41944;52.078;-0.058;2022-12-29T01:23:51;98943.10;;;10.19;87.20
56070;BME280;41944;52.078;-0.058;2022-12-29T01:26:18;98940.94;;;10.14;87.79
56070;BME280;41944;52.078;-0.058;2022-12-29T01:28:46;98934.53;;;10.15;88.70
56070;BME280;41944;52.078;-0.058;2022-12-29T01:31:14;98936.59;;;10.19;87.01
56070;BME280;41944;52.078;-0.058;2022-12-29T01:33:42;98938.62;;;10.16;87.07
56070;BME280;41944;52.078;-0.058;2022-12-29T01:36:12;98945.55;;;10.13;86.93
56070;BME280;41944;52.078;-0.058;2022-12-29T01:38:40;98942.08;;;10.16;87.67
56070;BME280;41944;52.078;-0.058;2022-12-29T01:41:10;98942.04;;;10.14;86.99
56070;BME280;41944;52.078;-0.058;2022-12-29T01:43:41;98942.01;;;10.10;86.57
56070;BME280;41944;52.078;-0.058;2022-12-29T01:46:16;98935.93;;;10.07;87.24
56070;BME280;41944;52.078;-0.058;2022-12-29T01:48:47;98931.43;;;10.09;87.40
56070;BME280;41944;52.078;-0.058;2022-12-29T01:51:15;98937.66;;;10.15;86.86
56070;BME280;41944;52.078;-0.058;2022-12-29T01:53:45;98943.68;;;10.08;87.59
56070;BME280;41944;52.078;-0.058;2022-12-29T01:56:15;98944.12;;;10.13;87.36
56070;BME280;41944;52.078;-0.058;2022-12-29T01:58:48;98941.44;;;10.06;88.38
56070;BME280;41944;52.078;-0.058;2022-12-29T02:01:18;98947.89;;;10.14;87.62
56070;BME280;41944;52.078;-0.058;2022-12-29T02:03:47;98940.71;;;10.09;86.24
56070;BME280;41944;52.078;-0.058;2022-12-29T02:06:18;98947.24;;;10.08;85.87
56070;BME280;41944;52.078;-0.058;2022-12-29T02:08:49;98948.78;;;10.06;86.92
56070;BME280;41944;52.078;-0.058;2022-12-29T02:11:17;98962.04;;;10.04;85.85
56070;BME280;41944;52.078;-0.058;2022-12-29T02:13:44;98959.48;;;10.05;86.42
56070;BME280;41944;52.078;-0.058;2022-12-29T02:16:21;98964.96;;;10.01;84.94
56070;BME280;41944;52.078;-0.058;2022-12-29T02:19:02;98975.71;;;10.04;84.90
56070;BME280;41944;52.078;-0.058;2022-12-29T02:21:57;98974.60;;;10.08;84.20
56070;BME280;41944;52.078;-0.058;2022-12-29T02:24:59;98977.62;;;10.05;85.04
56070;BME280;41944;52.078;-0.058;2022-12-29T02:27:48;98976.30;;;10.07;85.03
56070;BME280;41944;52.078;-0.058;2022-12-29T02:30:37;98978.62;;;10.00;84.72
56070;BME280;41944;52.078;-0.058;2022-12-29T02:33:09;98990.19;;;10.01;84.57
56070;BME280;41944;52.078;-0.058;2022-12-29T02:35:46;98987.06;;;9.98;84.46
56070;BME280;41944;52.078;-0.058;2022-12-29T02:38:22;98988.62;;;9.96;84.98
56070;BME280;41944;52.078;-0.058;2022-12-29T02:40:54;98981.61;;;10.00;84.81
56070;BME280;41944;52.078;-0.058;2022-12-29T02:43:28;98981.52;;;9.99;85.28
56070;BME280;41944;52.078;-0.058;2022-12-29T02:46:04;98975.78;;;10.03;85.23
56070;BME280;41944;52.078;-0.058;2022-12-29T02:48:40;98980.20;;;10.01;84.30
56070;BME280;41944;52.078;-0.058;2022-12-29T02:51:15;98972.67;;;10.01;83.83
56070;BME280;41944;52.078;-0.058;2022-12-29T02:53:45;98978.42;;;9.88;84.56
56070;BME280;41944;52.078;-0.058;2022-12-29T02:56:12;98976.82;;;9.93;85.00
56070;BME280;41944;52.078;-0.058;2022-12-29T02:58:39;98977.20;;;9.99;84.42
56070;BME280;41944;52.078;-0.058;2022-12-29T03:01:21;98979.36;;;9.98;84.41
56070;BME280;41944;52.078;-0.058;2022-12-29T03:04:01;98969.13;;;9.99;83.91
56070;BME280;41944;52.078;-0.058;2022-12-29T03:06:35;98968.32;;;9.98;84.63
56070;BME280;41944;52.078;-0.058;2022-12-29T03:09:13;98962.34;;;10.01;84.18
56070;BME280;41944;52.078;-0.058;2022-12-29T03:11:50;98961.41;;;10.08;84.53
56070;BME280;41944;52.078;-0.058;2022-12-29T03:14:27;98960.03;;;10.11;84.52
56070;BME280;41944;52.078;-0.058;2022-12-29T03:16:59;98948.09;;;10.10;82.73
56070;BME280;41944;52.078;-0.058;2022-12-29T03:19:30;98954.24;;;10.10;83.68
56070;BME280;41944;52.078;-0.058;2022-12-29T03:22:00;98954.14;;;10.12;83.51
56070;BME280;41944;52.078;-0.058;2022-12-29T03:24:31;98951.11;;;10.09;82.78
56070;BME280;41944;52.078;-0.058;2022-12-29T03:27:01;98948.20;;;10.09;82.93
56070;BME280;41944;52.078;-0.058;2022-12-29T03:29:32;98939.55;;;10.08;81.90
56070;BME280;41944;52.078;-0.058;2022-12-29T03:32:02;98928.80;;;10.04;82.14
56070;BME280;41944;52.078;-0.058;2022-12-29T03:34:31;98925.91;;;10.00;83.56
56070;BME280;41944;52.078;-0.058;2022-12-29T03:37:02;98923.62;;;10.01;82.63
56070;BME280;41944;52.078;-0.058;2022-12-29T03:39:32;98911.48;;;9.97;83.00
56070;BME280;41944;52.078;-0.058;2022-12-29T03:42:02;98906.68;;;9.95;83.16
56070;BME280;41944;52.078;-0.058;2022-12-29T03:44:33;98900.97;;;9.93;83.07
56070;BME280;41944;52.078;-0.058;2022-12-29T03:47:01;98901.36;;;9.92;83.55
56070;BME280;41944;52.078;-0.058;2022-12-29T03:49:28;98903.41;;;9.95;83.28
56070;BME280;41944;52.078;-0.058;2022-12-29T03:51:55;98898.09;;;9.95;82.85
56070;BME280;41944;52.078;-0.058;2022-12-29T03:54:22;98897.40;;;9.96;82.85
56070;BME280;41944;52.078;-0.058;2022-12-29T03:56:50;98902.49;;;9.96;83.35
56070;BME280;41944;52.078;-0.058;2022-12-29T03:59:17;98897.58;;;9.95;83.80
56070;BME280;41944;52.078;-0.058;2022-12-29T04:01:44;98893.73;;;9.97;83.48
56070;BME280;41944;52.078;-0.058;2022-12-29T04:04:11;98889.62;;;9.96;83.88
56070;BME280;41944;52.078;-0.058;2022-12-29T04:06:38;98899.20;;;9.96;84.41
56070;BME280;41944;52.078;-0.058;2022-12-29T04:09:05;98901.01;;;10.01;84.53
56070;BME280;41944;52.078;-0.058;2022-12-29T04:11:31;98901.25;;;9.96;84.25
56070;BME280;41944;52.078;-0.058;2022-12-29T04:13:59;98899.26;;;10.03;84.61
56070;BME280;41944;52.078;-0.058;2022-12-29T04:16:26;98904.61;;;10.09;84.24
56070;BME280;41944;52.078;-0.058;2022-12-29T04:18:52;98916.21;;;10.12;84.08
56070;BME280;41944;52.078;-0.058;2022-12-29T04:21:19;98923.60;;;10.16;83.84
56070;BME280;41944;52.078;-0.058;2022-12-29T04:23:46;98931.08;;;10.21;83.67
56070;BME280;41944;52.078;-0.058;2022-12-29T04:26:13;98932.30;;;10.22;83.50
56070;BME280;41944;52.078;-0.058;2022-12-29T04:28:40;98944.09;;;10.26;83.17
56070;BME280;41944;52.078;-0.058;2022-12-29T04:31:07;98954.48;;;10.31;83.47
56070;BME280;41944;52.078;-0.058;2022-12-29T04:33:34;98975.09;;;10.32;83.71
56070;BME280;41944;52.078;-0.058;2022-12-29T04:36:01;98977.04;;;10.37;83.83
56070;BME280;41944;52.078;-0.058;2022-12-29T04:38:28;98990.77;;;10.35;84.27
56070;BME280;41944;52.078;-0.058;2022-12-29T04:40:55;98995.56;;;10.40;84.48
56070;BME280;41944;52.078;-0.058;2022-12-29T04:43:22;99000.21;;;10.41;84.94
56070;BME280;41944;52.078;-0.058;2022-12-29T04:45:49;99009.39;;;10.41;85.64
56070;BME280;41944;52.078;-0.058;2022-12-29T04:48:16;99021.41;;;10.40;85.85
56070;BME280;41944;52.078;-0.058;2022-12-29T04:50:43;99027.17;;;10.40;86.62
56070;BME280;41944;52.078;-0.058;2022-12-29T04:53:10;99033.22;;;10.44;86.99
56070;BME280;41944;52.078;-0.058;2022-12-29T04:55:38;99037.20;;;10.38;87.59
56070;BME280;41944;52.078;-0.058;2022-12-29T04:58:05;99035.93;;;10.36;88.31
56070;BME280;41944;52.078;-0.058;2022-12-29T05:00:33;99036.24;;;10.36;88.55
56070;BME280;41944;52.078;-0.058;2022-12-29T05:03:00;99044.59;;;10.36;88.44
56070;BME280;41944;52.078;-0.058;2022-12-29T05:05:26;99045.31;;;10.35;88.43
56070;BME280;41944;52.078;-0.058;2022-12-29T05:07:53;99050.29;;;10.32;88.54
56070;BME280;41944;52.078;-0.058;2022-12-29T05:10:20;99062.70;;;10.29;88.38
56070;BME280;41944;52.078;-0.058;2022-12-29T05:12:47;99065.48;;;10.27;89.12
56070;BME280;41944;52.078;-0.058;2022-12-29T05:15:14;99069.04;;;10.28;88.96
56070;BME280;41944;52.078;-0.058;2022-12-29T05:17:41;99083.33;;;10.34;89.49
56070;BME280;41944;52.078;-0.058;2022-12-29T05:20:09;99099.43;;;10.33;90.65
56070;BME280;41944;52.078;-0.058;2022-12-29T05:22:36;99103.14;;;10.36;91.75
56070;BME280;41944;52.078;-0.058;2022-12-29T05:25:05;99120.09;;;10.37;92.42
56070;BME280;41944;52.078;-0.058;2022-12-29T05:27:31;99119.63;;;10.29;93.17
56070;BME280;41944;52.078;-0.058;2022-12-29T05:29:58;99122.08;;;10.19;93.23
56070;BME280;41944;52.078;-0.058;2022-12-29T05:32:25;99132.15;;;10.19;92.43
56070;BME280;41944;52.078;-0.058;2022-12-29T05:34:52;99144.77;;;10.10;91.73
56070;BME280;41944;52.078;-0.058;2022-12-29T05:37:19;99139.67;;;10.03;91.69
56070;BME280;41944;52.078;-0.058;2022-12-29T05:39:46;99143.55;;;9.97;91.32
56070;BME280;41944;52.078;-0.058;2022-12-29T05:42:12;99152.48;;;9.90;90.83
56070;BME280;41944;52.078;-0.058;2022-12-29T05:44:39;99153.80;;;9.81;92.15
56070;BME280;41944;52.078;-0.058;2022-12-29T05:47:06;99166.23;;;9.91;92.29
56070;BME280;41944;52.078;-0.058;2022-12-29T05:49:33;99177.02;;;9.87;92.01
56070;BME280;41944;52.078;-0.058;2022-12-29T05:52:00;99171.28;;;9.86;92.26
56070;BME280;41944;52.078;-0.058;2022-12-29T05:54:27;99174.91;;;9.92;91.45
56070;BME280;41944;52.078;-0.058;2022-12-29T05:56:54;99182.96;;;9.94;90.99
56070;BME280;41944;52.078;-0.058;2022-12-29T05:59:21;99188.69;;;9.89;90.57
56070;BME280;41944;52.078;-0.058;2022-12-29T06:01:47;99193.79;;;9.76;90.06
56070;BME280;41944;52.078;-0.058;2022-12-29T06:04:15;99198.25;;;9.86;89.21
56070;BME280;41944;52.078;-0.058;2022-12-29T06:06:42;99203.52;;;9.83;88.85
56070;BME280;41944;52.078;-0.058;2022-12-29T06:09:10;99212.28;;;9.81;88.47
56070;BME280;41944;52.078;-0.058;2022-12-29T06:11:37;99216.75;;;9.79;88.87
56070;BME280;41944;52.078;-0.058;2022-12-29T06:14:04;99221.75;;;9.71;89.20
56070;BME280;41944;52.078;-0.058;2022-12-29T06:16:31;99225.79;;;9.70;89.10
56070;BME280;41944;52.078;-0.058;2022-12-29T06:18:58;99230.34;;;9.71;89.37
56070;BME280;41944;52.078;-0.058;2022-12-29T06:21:25;99231.58;;;9.65;89.78
56070;BME280;41944;52.078;-0.058;2022-12-29T06:23:52;99238.20;;;9.60;90.51
56070;BME280;41944;52.078;-0.058;2022-12-29T06:26:19;99241.72;;;9.60;90.44
56070;BME280;41944;52.078;-0.058;2022-12-29T06:28:46;99244.94;;;9.60;90.00
56070;BME280;41944;52.078;-0.058;2022-12-29T06:31:12;99249.44;;;9.58;89.35
56070;BME280;41944;52.078;-0.058;2022-12-29T06:33:39;99258.85;;;9.59;90.20
56070;BME280;41944;52.078;-0.058;2022-12-29T06:36:07;99266.16;;;9.56;89.64
56070;BME280;41944;52.078;-0.058;2022-12-29T06:38:34;99277.84;;;9.59;89.49
56070;BME280;41944;52.078;-0.058;2022-12-29T06:41:01;99282.62;;;9.57;89.59
56070;BME280;41944;52.078;-0.058;2022-12-29T06:43:28;99287.11;;;9.54;89.55
56070;BME280;41944;52.078;-0.058;2022-12-29T06:45:54;99292.30;;;9.53;88.21
56070;BME280;41944;52.078;-0.058;2022-12-29T06:48:21;99300.34;;;9.53;88.34
56070;BME280;41944;52.078;-0.058;2022-12-29T06:50:48;99307.13;;;9.54;88.32
56070;BME280;41944;52.078;-0.058;2022-12-29T06:53:15;99309.71;;;9.49;88.99
56070;BME280;41944;52.078;-0.058;2022-12-29T06:55:42;99310.02;;;9.50;88.87
56070;BME280;41944;52.078;-0.058;2022-12-29T06:58:10;99314.78;;;9.50;88.49
56070;BME280;41944;52.078;-0.058;2022-12-29T07:00:36;99320.35;;;9.38;88.65
56070;BME280;41944;52.078;-0.058;2022-12-29T07:03:04;99320.02;;;9.36;89.10
56070;BME280;41944;52.078;-0.058;2022-12-29T07:05:31;99325.05;;;9.42;89.25
56070;BME280;41944;52.078;-0.058;2022-12-29T07:07:58;99338.16;;;9.38;88.77
56070;BME280;41944;52.078;-0.058;2022-12-29T07:10:26;99343.41;;;9.46;89.09
56070;BME280;41944;52.078;-0.058;2022-12-29T07:12:53;99349.34;;;9.43;88.51
56070;BME280;41944;52.078;-0.058;2022-12-29T07:15:20;99345.15;;;9.35;88.50
56070;BME280;41944;52.078;-0.058;2022-12-29T07:17:47;99356.14;;;9.39;88.72
56070;BME280;41944;52.078;-0.058;2022-12-29T07:20:14;99362.36;;;9.31;89.40
56070;BME280;41944;52.078;-0.058;2022-12-29T07:22:41;99367.89;;;9.23;88.79
56070;BME280;41944;52.078;-0.058;2022-12-29T07:25:09;99373.97;;;9.23;89.23
56070;BME280;41944;52.078;-0.058;2022-12-29T07:27:36;99368.08;;;9.26;88.79
56070;BME280;41944;52.078;-0.058;2022-12-29T07:30:03;99375.18;;;9.22;88.80
56070;BME280;41944;52.078;-0.058;2022-12-29T07:32:32;99372.36;;;9.20;89.17
56070;BME280;41944;52.078;-0.058;2022-12-29T07:35:00;99371.00;;;9.18;88.67
56070;BME280;41944;52.078;-0.058;2022-12-29T07:37:27;99381.79;;;9.15;88.91
56070;BME280;41944;52.078;-0.058;2022-12-29T07:39:53;99386.12;;;9.12;88.81
56070;BME280;41944;52.078;-0.058;2022-12-29T07:42:20;99401.18;;;9.12;89.04
56070;BME280;41944;52.078;-0.058;2022-12-29T07:44:47;99416.60;;;9.17;87.93
56070;BME280;41944;52.078;-0.058;2022-12-29T07:47:14;99423.96;;;9.16;88.29
56070;BME280;41944;52.078;-0.058;2022-12-29T07:49:41;99431.06;;;9.14;87.51
56070;BME280;41944;52.078;-0.058;2022-12-29T07:52:08;99431.36;;;9.06;87.84
56070;BME280;41944;52.078;-0.058;2022-12-29T07:54:35;99436.11;;;9.12;87.55
56070;BME280;41944;52.078;-0.058;2022-12-29T07:57:02;99444.80;;;9.06;87.35
56070;BME280;41944;52.078;-0.058;2022-12-29T07:59:28;99442.88;;;9.12;87.93
56070;BME280;41944;52.078;-0.058;2022-12-29T08:01:55;99449.01;;;9.03;87.28
56070;BME280;41944;52.078;-0.058;2022-12-29T08:04:22;99447.55;;;8.96;87.45
56070;BME280;41944;52.078;-0.058;2022-12-29T08:06:49;99457.93;;;9.00;88.04
56070;BME280;41944;52.078;-0.058;2022-12-29T08:09:16;99465.37;;;8.92;87.71
56070;BME280;41944;52.078;-0.058;2022-12-29T08:11:43;99469.89;;;8.99;87.77
56070;BME280;41944;52.078;-0.058;2022-12-29T08:14:10;99477.51;;;8.89;87.57
56070;BME280;41944;52.078;-0.058;2022-12-29T08:16:37;99485.22;;;8.89;87.69
56070;BME280;41944;52.078;-0.058;2022-12-29T08:19:04;99489.88;;;8.96;87.58
56070;BME280;41944;52.078;-0.058;2022-12-29T08:21:31;99493.52;;;8.93;87.73
56070;BME280;41944;52.078;-0.058;2022-12-29T08:23:58;99495.62;;;8.90;87.48
56070;BME280;41944;52.078;-0.058;2022-12-29T08:26:25;99490.19;;;8.94;87.46
56070;BME280;41944;52.078;-0.058;2022-12-29T08:28:52;99501.88;;;8.88;87.57
56070;BME280;41944;52.078;-0.058;2022-12-29T08:31:19;99516.40;;;8.94;88.16
56070;BME280;41944;52.078;-0.058;2022-12-29T08:33:46;99518.82;;;8.92;87.67
56070;BME280;41944;52.078;-0.058;2022-12-29T08:36:13;99527.61;;;8.92;87.47
56070;BME280;41944;52.078;-0.058;2022-12-29T08:38:40;99533.62;;;8.95;87.41
56070;BME280;41944;52.078;-0.058;2022-12-29T08:41:07;99543.74;;;9.01;87.24
56070;BME280;41944;52.078;-0.058;2022-12-29T08:43:34;99551.15;;;8.94;87.67
56070;BME280;41944;52.078;-0.058;2022-12-29T08:46:01;99550.26;;;8.90;87.15
56070;BME280;41944;52.078;-0.058;2022-12-29T08:48:28;99557.65;;;8.95;87.58
56070;BME280;41944;52.078;-0.058;2022-12-29T08:50:55;99565.90;;;8.94;88.14
56070;BME280;41944;52.078;-0.058;2022-12-29T08:53:22;99564.61;;;8.95;87.93
56070;BME280;41944;52.078;-0.058;2022-12-29T08:55:56;99568.63;;;8.92;88.20
56070;BME280;41944;52.078;-0.058;2022-12-29T08:58:23;99579.51;;;8.98;87.53
56070;BME280;41944;52.078;-0.058;2022-12-29T09:00:53;99584.49;;;9.04;88.33
56070;BME280;41944;52.078;-0.058;2022-12-29T09:03:21;99588.29;;;8.99;88.54
56070;BME280;41944;52.078;-0.058;2022-12-29T09:05:48;99595.25;;;9.05;88.08
56070;BME280;41944;52.078;-0.058;2022-12-29T09:08:15;99595.42;;;9.06;87.70
56070;BME280;41944;52.078;-0.058;2022-12-29T09:10:42;99592.05;;;9.05;87.44
56070;BME280;41944;52.078;-0.058;2022-12-29T09:13:09;99592.19;;;9.11;87.48
56070;BME280;41944;52.078;-0.058;2022-12-29T09:15:37;99593.25;;;9.09;87.66
56070;BME280;41944;52.078;-0.058;2022-12-29T09:18:05;99596.11;;;9.12;88.16
56070;BME280;41944;52.078;-0.058;2022-12-29T09:20:33;99602.44;;;9.15;88.34
56070;BME280;41944;52.078;-0.058;2022-12-29T09:23:01;99608.59;;;9.25;87.73
56070;BME280;41944;52.078;-0.058;2022-12-29T09:25:29;99609.37;;;9.25;87.97
56070;BME280;41944;52.078;-0.058;2022-12-29T09:27:56;99610.16;;;9.33;89.71
56070;BME280;41944;52.078;-0.058;2022-12-29T09:30:24;99617.20;;;9.43;87.56
56070;BME280;41944;52.078;-0.058;2022-12-29T09:32:50;99616.39;;;9.41;86.55
56070;BME280;41944;52.078;-0.058;2022-12-29T09:35:18;99618.22;;;9.35;86.92
56070;BME280;41944;52.078;-0.058;2022-12-29T09:37:45;99614.95;;;9.34;87.02
56070;BME280;41944;52.078;-0.058;2022-12-29T09:40:24;99614.78;;;9.31;86.78
56070;BME280;41944;52.078;-0.058;2022-12-29T09:43:06;99625.97;;;9.37;86.04
56070;BME280;41944;52.078;-0.058;2022-12-29T09:45:40;99622.82;;;9.31;85.51
56070;BME280;41944;52.078;-0.058;2022-12-29T09:48:14;99627.08;;;9.35;84.56
56070;BME280;41944;52.078;-0.058;2022-12-29T09:50:47;99625.15;;;9.41;84.46
56070;BME280;41944;52.078;-0.058;2022-12-29T09:53:19;99631.85;;;9.47;83.51
56070;BME280;41944;52.078;-0.058;2022-12-29T09:55:49;99637.86;;;9.55;83.88
56070;BME280;41944;52.078;-0.058;2022-12-29T09:58:21;99638.71;;;9.67;83.05
56070;BME280;41944;52.078;-0.058;2022-12-29T10:00:56;99643.81;;;9.82;82.23
56070;BME280;41944;52.078;-0.058;2022-12-29T10:03:36;99654.79;;;9.89;81.30
56070;BME280;41944;52.078;-0.058;2022-12-29T10:06:12;99660.66;;;10.04;80.07
56070;BME280;41944;52.078;-0.058;2022-12-29T10:08:44;99655.89;;;10.02;78.59
56070;BME280;41944;52.078;-0.058;2022-12-29T10:11:25;99674.71;;;10.02;79.74
56070;BME280;41944;52.078;-0.058;2022-12-29T10:14:08;99676.25;;;10.22;82.16
56070;BME280;41944;52.078;-0.058;2022-12-29T10:16:44;99684.65;;;10.23;81.25
56070;BME280;41944;52.078;-0.058;2022-12-29T10:19:28;99687.67;;;10.31;78.91
56070;BME280;41944;52.078;-0.058;2022-12-29T10:22:08;99698.13;;;10.37;77.19
56070;BME280;41944;52.078;-0.058;2022-12-29T10:24:39;99697.58;;;10.46;76.21
56070;BME280;41944;52.078;-0.058;2022-12-29T10:27:10;99702.08;;;10.44;76.62
56070;BME280;41944;52.078;-0.058;2022-12-29T10:29:42;99708.60;;;10.57;76.29
56070;BME280;41944;52.078;-0.058;2022-12-29T10:32:21;99696.91;;;10.76;76.22
56070;BME280;41944;52.078;-0.058;2022-12-29T10:34:53;99700.53;;;10.92;74.90
56070;BME280;41944;52.078;-0.058;2022-12-29T10:37:30;99699.64;;;10.91;74.47
56070;BME280;41944;52.078;-0.058;2022-12-29T10:39:59;99703.94;;;10.83;75.53
56070;BME280;41944;52.078;-0.058;2022-12-29T10:42:36;99704.12;;;10.81;76.10
56070;BME280;41944;52.078;-0.058;2022-12-29T10:45:10;99696.61;;;10.61;77.97
56070;BME280;41944;52.078;-0.058;2022-12-29T10:47:45;99699.16;;;10.53;77.41
56070;BME280;41944;52.078;-0.058;2022-12-29T10:50:15;99702.00;;;10.42;78.31
56070;BME280;41944;52.078;-0.058;2022-12-29T10:52:42;99699.76;;;10.33;78.99
56070;BME280;41944;52.078;-0.058;2022-12-29T10:55:12;99698.32;;;10.27;78.30
56070;BME280;41944;52.078;-0.058;2022-12-29T10:57:43;99707.59;;;10.16;79.68
56070;BME280;41944;52.078;-0.058;2022-12-29T11:00:15;99706.70;;;10.08;79.94
56070;BME280;41944;52.078;-0.058;2022-12-29T11:02:54;99709.58;;;10.11;79.97
56070;BME280;41944;52.078;-0.058;2022-12-29T11:05:32;99705.95;;;10.07;79.75
56070;BME280;41944;52.078;-0.058;2022-12-29T11:08:04;99706.87;;;10.02;80.66
56070;BME280;41944;52.078;-0.058;2022-12-29T11:10:37;99708.10;;;9.98;80.43
56070;BME280;41944;52.078;-0.058;2022-12-29T11:13:12;99713.78;;;10.00;80.39
56070;BME280;41944;52.078;-0.058;2022-12-29T11:15:41;99711.19;;;10.02;79.62
56070;BME280;41944;52.078;-0.058;2022-12-29T11:18:19;99715.34;;;10.10;79.30
56070;BME280;41944;52.078;-0.058;2022-12-29T11:20:48;99722.60;;;10.14;79.40
56070;BME280;41944;52.078;-0.058;2022-12-29T11:23:34;99727.91;;;10.16;77.89
56070;BME280;41944;52.078;-0.058;2022-12-29T11:26:11;99725.67;;;10.25;78.49
56070;BME280;41944;52.078;-0.058;2022-12-29T11:28:41;99734.06;;;10.26;78.09
56070;BME280;41944;52.078;-0.058;2022-12-29T11:31:09;99737.69;;;10.22;78.27
56070;BME280;41944;52.078;-0.058;2022-12-29T11:33:38;99737.74;;;10.21;78.25
56070;BME280;41944;52.078;-0.058;2022-12-29T11:36:07;99742.56;;;10.10;78.30
56070;BME280;41944;52.078;-0.058;2022-12-29T11:38:40;99744.24;;;10.09;79.96
56070;BME280;41944;52.078;-0.058;2022-12-29T11:41:13;99744.16;;;10.14;80.14
56070;BME280;41944;52.078;-0.058;2022-12-29T11:43:46;99748.46;;;10.15;79.00
56070;BME280;41944;52.078;-0.058;2022-12-29T11:46:16;99748.57;;;10.19;79.62
56070;BME280;41944;52.078;-0.058;2022-12-29T11:48:44;99757.29;;;10.22;78.28
56070;BME280;41944;52.078;-0.058;2022-12-29T11:51:20;99758.09;;;10.19;79.23
56070;BME280;41944;52.078;-0.058;2022-12-29T11:53:51;99757.74;;;10.29;77.95
56070;BME280;41944;52.078;-0.058;2022-12-29T11:56:21;99759.62;;;10.32;77.84
56070;BME280;41944;52.078;-0.058;2022-12-29T11:58:50;99771.90;;;10.32;76.40
56070;BME280;41944;52.078;-0.058;2022-12-29T12:01:20;99774.22;;;10.36;76.67
56070;BME280;41944;52.078;-0.058;2022-12-29T12:03:58;99770.65;;;10.37;76.28
56070;BME280;41944;52.078;-0.058;2022-12-29T12:06:29;99775.35;;;10.47;75.45
56070;BME280;41944;52.078;-0.058;2022-12-29T12:09:01;99780.15;;;10.51;75.25
56070;BME280;41944;52.078;-0.058;2022-12-29T12:11:33;99786.28;;;10.57;76.94
56070;BME280;41944;52.078;-0.058;2022-12-29T12:14:06;99789.44;;;10.57;75.20
56070;BME280;41944;52.078;-0.058;2022-12-29T12:16:40;99788.97;;;10.58;75.37
56070;BME280;41944;52.078;-0.058;2022-12-29T12:19:15;99792.62;;;10.62;74.60
56070;BME280;41944;52.078;-0.058;2022-12-29T12:21:51;99787.70;;;10.66;75.36
56070;BME280;41944;52.078;-0.058;2022-12-29T12:24:36;99779.23;;;10.76;75.22
56070;BME280;41944;52.078;-0.058;2022-12-29T12:27:13;99787.76;;;10.81;74.36
56070;BME280;41944;52.078;-0.058;2022-12-29T12:29:48;99773.46;;;10.72;73.35
56070;BME280;41944;52.078;-0.058;2022-12-29T12:32:20;99784.90;;;10.72;74.31
56070;BME280;41944;52.078;-0.058;2022-12-29T12:34:49;99781.94;;;10.81;74.41
56070;BME280;41944;52.078;-0.058;2022-12-29T12:37:28;99781.88;;;10.92;74.50
56070;BME280;41944;52.078;-0.058;2022-12-29T12:40:11;99786.23;;;10.95;73.51
56070;BME280;41944;52.078;-0.058;2022-12-29T12:42:53;99775.73;;;11.02;72.24
56070;BME280;41944;52.078;-0.058;2022-12-29T12:45:38;99771.99;;;10.96;72.66
56070;BME280;41944;52.078;-0.058;2022-12-29T12:48:23;99783.43;;;10.82;72.02
56070;BME280;41944;52.078;-0.058;2022-12-29T12:50:56;99782.45;;;10.75;73.80
56070;BME280;41944;52.078;-0.058;2022-12-29T12:53:38;99778.74;;;10.60;72.98
56070;BME280;41944;52.078;-0.058;2022-12-29T12:56:27;99782.24;;;10.58;73.58
56070;BME280;41944;52.078;-0.058;2022-12-29T12:59:04;99776.41;;;10.59;72.47
56070;BME280;41944;52.078;-0.058;2022-12-29T13:01:39;99787.13;;;10.59;72.01
56070;BME280;41944;52.078;-0.058;2022-12-29T13:04:32;99788.14;;;10.53;72.72
56070;BME280;41944;52.078;-0.058;2022-12-29T13:07:16;99789.38;;;10.44;72.58
56070;BME280;41944;52.078;-0.058;2022-12-29T13:09:56;99789.89;;;10.45;72.03